createdAt,value
2024-01-26T00:01:28.657Z,3.10
2024-01-26T00:04:34.734Z,2.50
2024-01-26T00:07:40.709Z,2.80
2024-01-26T00:10:46.482Z,2.90
2024-01-26T00:13:52.149Z,3.10
2024-01-26T00:16:57.823Z,2.30
2024-01-26T00:20:03.492Z,3.00
2024-01-26T00:23:09.176Z,3.00
2024-01-26T00:26:16.117Z,3.10
2024-01-26T00:29:22.320Z,3.00
2024-01-26T00:32:27.986Z,2.80
2024-01-26T00:35:33.842Z,3.40
2024-01-26T00:38:39.478Z,3.60
2024-01-26T00:41:45.100Z,3.40
2024-01-26T00:44:50.707Z,3.30
2024-01-26T00:47:56.409Z,3.10
2024-01-26T00:51:02.842Z,3.30
2024-01-26T00:54:08.599Z,3.20
2024-01-26T00:57:15.323Z,3.20
2024-01-26T01:00:21.585Z,3.20
2024-01-26T01:03:27.491Z,3.60
2024-01-26T01:06:33.307Z,3.60
2024-01-26T01:09:41.558Z,3.20
2024-01-26T01:12:47.877Z,3.20
2024-01-26T01:15:53.625Z,3.30
2024-01-26T01:18:59.392Z,3.30
2024-01-26T01:22:05.365Z,3.30
2024-01-26T01:25:13.336Z,2.90
2024-01-26T01:28:19.052Z,2.60
2024-01-26T01:31:24.716Z,3.20
2024-01-26T01:34:30.701Z,3.10
2024-01-26T01:37:36.457Z,2.60
2024-01-26T01:40:42.221Z,2.70
2024-01-26T01:43:57.181Z,3.10
2024-01-26T01:47:02.821Z,4.20
2024-01-26T01:50:10.001Z,4.40
2024-01-26T01:53:17.174Z,4.60
2024-01-26T01:56:25.630Z,4.50
2024-01-26T01:59:32.401Z,4.10
2024-01-26T02:02:38.499Z,4.30
2024-01-26T02:05:45.520Z,3.80
2024-01-26T02:08:51.232Z,3.70
2024-01-26T02:11:57.499Z,4.20
2024-01-26T02:18:08.349Z,4.40
2024-01-26T02:21:14.031Z,3.70
2024-01-26T02:24:19.991Z,4.10
2024-01-26T02:27:25.986Z,4.00
2024-01-26T02:30:34.984Z,3.40
2024-01-26T02:33:40.798Z,3.90
2024-01-26T02:36:46.588Z,3.30
2024-01-26T02:39:52.412Z,3.80
2024-01-26T02:42:58.022Z,3.50
2024-01-26T02:46:09.995Z,3.60
2024-01-26T02:49:16.077Z,3.90
2024-01-26T02:52:22.277Z,4.30
2024-01-26T02:55:27.914Z,3.30
2024-01-26T02:58:33.586Z,4.20
2024-01-26T03:01:39.252Z,3.60
2024-01-26T03:04:44.850Z,3.30
2024-01-26T03:07:50.520Z,4.00
2024-01-26T03:10:56.132Z,3.60
2024-01-26T03:14:01.781Z,4.30
2024-01-26T03:17:07.781Z,4.10
2024-01-26T03:20:15.166Z,3.80
2024-01-26T03:23:20.900Z,3.70
2024-01-26T03:26:26.566Z,4.10
2024-01-26T03:29:32.232Z,3.70
2024-01-26T03:32:38.086Z,3.90
2024-01-26T03:35:43.809Z,3.50
2024-01-26T03:38:49.535Z,3.50
2024-01-26T03:41:55.614Z,3.60
2024-01-26T03:45:02.054Z,3.60
2024-01-26T03:51:13.456Z,4.50
2024-01-26T03:57:24.127Z,3.60
2024-01-26T04:00:29.808Z,3.90
2024-01-26T04:03:35.622Z,3.70
2024-01-26T04:06:43.813Z,3.50
2024-01-26T04:09:49.485Z,3.50
2024-01-26T04:12:55.089Z,2.90
2024-01-26T04:16:00.770Z,2.80
2024-01-26T04:19:06.563Z,3.20
2024-01-26T04:22:12.480Z,3.10
2024-01-26T04:25:18.296Z,3.20
2024-01-26T04:28:23.964Z,3.20
2024-01-26T04:31:29.847Z,3.00
2024-01-26T04:34:39.101Z,3.90
2024-01-26T04:37:45.173Z,3.50
2024-01-26T04:40:50.849Z,3.30
2024-01-26T04:43:56.735Z,4.00
2024-01-26T04:47:02.390Z,3.80
2024-01-26T04:50:09.090Z,3.60
2024-01-26T04:53:16.629Z,4.00
2024-01-26T04:56:22.997Z,3.60
2024-01-26T05:02:33.134Z,4.20
2024-01-26T05:05:38.910Z,4.10
2024-01-26T05:08:45.257Z,4.10
2024-01-26T05:11:51.254Z,4.30
2024-01-26T05:14:56.948Z,4.40
2024-01-26T05:18:02.795Z,4.80
2024-01-26T05:21:09.456Z,4.60
2024-01-26T05:24:15.241Z,4.50
2024-01-26T05:27:20.913Z,5.40
2024-01-26T05:30:27.652Z,4.90
2024-01-26T05:33:33.619Z,4.70
2024-01-26T05:36:44.300Z,5.20
2024-01-26T05:39:50.070Z,5.40
2024-01-26T05:42:55.691Z,6.20
2024-01-26T05:46:01.338Z,6.40
2024-01-26T05:49:09.354Z,6.00
2024-01-26T05:52:15.836Z,6.50
2024-01-26T05:55:21.621Z,6.50
2024-01-26T05:58:27.466Z,6.20
2024-01-26T06:01:33.169Z,5.90
2024-01-26T06:04:38.803Z,6.20
2024-01-26T06:07:44.476Z,7.40
2024-01-26T06:10:50.197Z,8.70
2024-01-26T06:13:55.810Z,8.40
2024-01-26T06:17:01.481Z,8.10
2024-01-26T06:20:09.178Z,8.60
2024-01-26T06:23:14.896Z,8.70
2024-01-26T06:26:21.400Z,10.60
2024-01-26T06:29:27.156Z,11.20
2024-01-26T06:32:32.947Z,13.40
2024-01-26T06:35:39.454Z,9.20
2024-01-26T06:38:45.297Z,8.90
2024-01-26T06:41:51.929Z,8.90
2024-01-26T06:44:57.893Z,8.80
2024-01-26T06:48:03.828Z,9.30
2024-01-26T06:51:10.143Z,9.20
2024-01-26T06:54:15.962Z,9.60
2024-01-26T06:57:22.276Z,9.30
2024-01-26T07:00:28.824Z,8.30
2024-01-26T07:03:34.620Z,9.40
2024-01-26T07:06:40.503Z,6.50
2024-01-26T07:09:46.366Z,6.70
2024-01-26T07:12:52.088Z,6.80
2024-01-26T07:15:57.735Z,7.00
2024-01-26T07:19:03.471Z,6.80
2024-01-26T07:22:09.328Z,6.70
2024-01-26T07:25:20.300Z,6.20
2024-01-26T07:28:26.084Z,6.30
2024-01-26T07:31:31.753Z,6.20
2024-01-26T07:34:37.622Z,5.00
2024-01-26T07:37:43.409Z,5.90
2024-01-26T07:40:49.012Z,5.90
2024-01-26T07:43:54.660Z,5.60
2024-01-26T07:47:00.298Z,5.30
2024-01-26T07:50:07.164Z,3.80
2024-01-26T07:53:13.799Z,6.70
2024-01-26T07:56:19.555Z,5.50
2024-01-26T07:59:25.320Z,6.40
2024-01-26T08:02:31.981Z,5.90
2024-01-26T08:05:38.064Z,5.30
2024-01-26T08:08:44.092Z,5.50
2024-01-26T08:11:50.840Z,5.10
2024-01-26T08:15:01.643Z,5.40
2024-01-26T08:18:09.198Z,6.10
2024-01-26T08:21:15.059Z,5.30
2024-01-26T08:24:21.280Z,5.80
2024-01-26T08:27:27.312Z,5.30
2024-01-26T08:30:33.254Z,6.30
2024-01-26T08:33:39.239Z,6.20
2024-01-26T08:36:45.116Z,6.40
2024-01-26T08:39:51.080Z,5.90
2024-01-26T08:42:56.735Z,6.40
2024-01-26T08:46:02.388Z,5.50
2024-01-26T08:49:08.821Z,6.20
2024-01-26T08:52:14.606Z,6.00
2024-01-26T08:55:20.538Z,5.50
2024-01-26T08:58:26.419Z,5.90
2024-01-26T09:01:32.072Z,6.50
2024-01-26T09:04:38.285Z,7.10
2024-01-26T09:10:48.455Z,6.70
2024-01-26T09:13:54.144Z,6.20
2024-01-26T09:17:02.057Z,6.80
2024-01-26T09:20:10.682Z,6.10
2024-01-26T09:23:16.663Z,7.30
2024-01-26T09:26:22.852Z,6.40
2024-01-26T09:32:35.488Z,6.80
2024-01-26T09:35:41.442Z,7.70
2024-01-26T09:38:47.171Z,8.10
2024-01-26T09:41:52.993Z,8.00
2024-01-26T09:44:59.108Z,7.60
2024-01-26T09:48:08.369Z,6.90
2024-01-26T09:51:14.573Z,8.50
2024-01-26T09:54:22.822Z,8.00
2024-01-26T09:57:29.904Z,7.60
2024-01-26T10:00:35.767Z,7.50
2024-01-26T10:03:41.577Z,7.40
2024-01-26T10:06:49.700Z,7.00
2024-01-26T10:09:55.742Z,6.40
2024-01-26T10:13:01.866Z,5.60
2024-01-26T10:16:13.771Z,5.50
2024-01-26T10:19:27.196Z,4.80
2024-01-26T10:22:33.407Z,4.80
2024-01-26T10:25:41.423Z,5.40
2024-01-26T10:28:49.758Z,4.60
2024-01-26T10:31:55.716Z,5.10
2024-01-26T10:35:04.066Z,5.20
2024-01-26T10:38:12.441Z,4.60
2024-01-26T10:41:22.888Z,5.30
2024-01-26T10:44:29.159Z,4.80
2024-01-26T10:47:36.751Z,4.70
2024-01-26T10:50:43.499Z,4.90
2024-01-26T10:53:50.197Z,5.20
2024-01-26T10:56:56.423Z,5.00
2024-01-26T11:03:07.801Z,5.90
2024-01-26T11:06:15.216Z,5.20
2024-01-26T11:09:22.331Z,4.90
2024-01-26T11:12:31.283Z,5.50
2024-01-26T11:15:38.662Z,5.10
2024-01-26T11:18:44.381Z,5.40
2024-01-26T11:21:50.821Z,4.90
2024-01-26T11:31:08.126Z,5.70
2024-01-26T11:34:23.288Z,5.50
2024-01-26T11:37:31.007Z,5.70
2024-01-26T11:40:37.477Z,6.30
2024-01-26T11:43:47.646Z,5.20
2024-01-26T11:46:54.055Z,4.90
2024-01-26T11:50:00.071Z,4.50
2024-01-26T11:53:06.740Z,4.40
2024-01-26T11:56:13.077Z,4.30
2024-01-26T11:59:19.008Z,4.70
2024-01-26T12:02:24.778Z,4.30
2024-01-26T12:05:31.405Z,4.30
2024-01-26T12:08:37.490Z,4.10
2024-01-26T12:11:43.890Z,5.00
2024-01-26T12:14:50.198Z,4.20
2024-01-26T12:21:01.702Z,5.70
2024-01-26T12:24:15.833Z,5.20
2024-01-26T12:27:22.360Z,6.00
2024-01-26T12:33:36.452Z,6.20
2024-01-26T12:36:42.548Z,7.60
2024-01-26T12:40:38.132Z,7.00
2024-01-26T12:43:45.114Z,7.70
2024-01-26T12:46:50.961Z,6.10
2024-01-26T12:49:56.832Z,6.00
2024-01-26T12:53:02.862Z,5.30
2024-01-26T12:56:10.057Z,5.60
2024-01-26T12:59:16.009Z,5.70
2024-01-26T13:02:21.882Z,5.30
2024-01-26T13:05:27.711Z,6.00
2024-01-26T13:08:33.408Z,5.40
2024-01-26T13:11:40.491Z,5.80
2024-01-26T13:14:48.099Z,5.60
2024-01-26T13:17:54.034Z,5.00
2024-01-26T13:21:00.261Z,5.60
2024-01-26T13:24:06.918Z,5.60
2024-01-26T13:30:25.245Z,5.50
2024-01-26T13:33:32.339Z,5.30
2024-01-26T13:36:38.096Z,5.80
2024-01-26T13:39:43.747Z,5.60
2024-01-26T13:42:50.214Z,5.60
2024-01-26T13:45:55.963Z,5.70
2024-01-26T13:49:01.878Z,5.30
2024-01-26T13:52:09.584Z,5.90
2024-01-26T13:55:16.501Z,5.20
2024-01-26T13:58:22.405Z,5.10
2024-01-26T14:01:28.271Z,6.90
2024-01-26T14:04:34.106Z,6.60
2024-01-26T14:07:40.061Z,7.00
2024-01-26T14:10:45.902Z,6.30
2024-01-26T14:13:51.782Z,5.40
2024-01-26T14:16:58.791Z,5.20
2024-01-26T14:20:04.960Z,5.00
2024-01-26T14:23:10.668Z,5.70
2024-01-26T14:26:16.333Z,5.70
2024-01-26T14:29:22.294Z,6.80
2024-01-26T14:32:28.289Z,6.90
2024-01-26T14:35:34.133Z,6.50
2024-01-26T14:38:39.886Z,7.30
2024-01-26T14:41:45.567Z,7.50
2024-01-26T14:44:51.439Z,7.40
2024-01-26T14:47:57.128Z,7.20
2024-01-26T14:51:02.902Z,8.70
2024-01-26T14:54:08.657Z,9.40
2024-01-26T14:57:14.437Z,9.20
2024-01-26T15:00:22.748Z,8.80
2024-01-26T15:03:29.941Z,8.40
2024-01-26T15:06:36.267Z,20.50
2024-01-26T15:09:41.998Z,16.20
2024-01-26T15:12:47.730Z,13.80
2024-01-26T15:15:53.933Z,14.00
2024-01-26T15:22:03.632Z,10.00
2024-01-26T15:25:10.789Z,9.80
2024-01-26T15:28:20.470Z,10.50
2024-01-26T15:31:26.272Z,9.30
2024-01-26T15:34:32.473Z,10.30
2024-01-26T15:40:43.981Z,7.90
2024-01-26T15:43:49.635Z,8.30
2024-01-26T15:46:55.366Z,8.70
2024-01-26T15:50:01.196Z,8.70
2024-01-26T15:53:07.568Z,9.10
2024-01-26T15:56:13.566Z,7.80
2024-01-26T15:59:19.189Z,8.50
2024-01-26T16:02:24.827Z,9.20
2024-01-26T16:05:30.475Z,13.90
2024-01-26T16:08:39.371Z,17.60
2024-01-26T16:11:45.093Z,9.60
2024-01-26T16:14:50.847Z,12.80
2024-01-26T16:17:56.815Z,8.80
2024-01-26T16:21:02.784Z,9.40
2024-01-26T16:24:09.825Z,11.80
2024-01-26T16:27:15.620Z,9.60
2024-01-26T16:30:21.936Z,15.30
2024-01-26T16:33:27.891Z,14.90
2024-01-26T16:36:34.717Z,13.00
2024-01-26T16:39:40.565Z,14.80
2024-01-26T16:42:46.359Z,14.00
2024-01-26T16:45:52.060Z,16.10
2024-01-26T16:48:59.830Z,21.80
2024-01-26T16:52:06.021Z,27.90
2024-01-26T16:55:12.594Z,35.30
2024-01-26T16:58:18.294Z,34.40
2024-01-26T17:01:24.392Z,45.90
2024-01-26T17:04:30.045Z,42.10
2024-01-26T17:07:36.452Z,44.40
2024-01-26T17:10:42.206Z,43.30
2024-01-26T17:13:47.842Z,45.30
2024-01-26T17:16:54.592Z,48.50
2024-01-26T17:20:00.322Z,44.90
2024-01-26T17:23:06.399Z,33.70
2024-01-26T17:26:12.045Z,22.80
2024-01-26T17:29:17.673Z,19.80
2024-01-26T17:32:23.358Z,11.30
2024-01-26T17:35:32.026Z,21.70
2024-01-26T17:38:38.681Z,29.20
2024-01-26T17:44:50.503Z,34.00
2024-01-26T17:47:56.317Z,38.20
2024-01-26T17:51:02.241Z,33.50
2024-01-26T17:54:08.551Z,32.70
2024-01-26T18:00:20.014Z,33.30
2024-01-26T18:03:25.813Z,37.70
2024-01-26T18:06:31.802Z,34.30
2024-01-26T18:09:37.591Z,33.50
2024-01-26T18:12:43.350Z,32.00
2024-01-26T18:15:49.169Z,31.90
2024-01-26T18:18:55.200Z,32.10
2024-01-26T18:22:01.114Z,30.60
2024-01-26T18:25:08.611Z,30.90
2024-01-26T18:28:14.396Z,28.50
2024-01-26T18:31:20.950Z,29.00
2024-01-26T18:34:27.031Z,34.60
2024-01-26T18:37:32.847Z,40.40
2024-01-26T18:40:38.494Z,39.60
2024-01-26T18:43:44.126Z,38.80
2024-01-26T18:46:49.919Z,36.00
2024-01-26T18:49:55.708Z,27.70
2024-01-26T18:53:01.525Z,40.50
2024-01-26T18:56:08.897Z,41.60
2024-01-26T18:59:17.685Z,42.70
2024-01-26T19:02:23.626Z,42.50
2024-01-26T19:05:29.570Z,40.90
2024-01-26T19:08:35.588Z,41.90
2024-01-26T19:11:44.669Z,41.90
2024-01-26T19:14:50.382Z,43.60
2024-01-26T19:17:56.223Z,43.90
2024-01-26T19:21:02.215Z,45.10
2024-01-26T19:24:09.127Z,42.10
2024-01-26T19:27:14.927Z,43.30
2024-01-26T19:30:21.051Z,42.40
2024-01-26T19:33:26.999Z,43.70
2024-01-26T19:36:32.855Z,43.70
2024-01-26T19:39:38.536Z,44.70
2024-01-26T19:42:44.176Z,45.80
2024-01-26T19:45:49.785Z,49.00
2024-01-26T19:48:56.038Z,45.80
2024-01-26T19:52:01.809Z,47.00
2024-01-26T19:55:09.646Z,43.90
2024-01-26T19:58:15.410Z,45.30
2024-01-26T20:01:21.246Z,46.30
2024-01-26T20:04:27.208Z,47.40
2024-01-26T20:07:33.270Z,45.90
2024-01-26T20:10:40.515Z,45.60
2024-01-26T20:13:46.586Z,45.30
2024-01-26T20:16:52.220Z,44.10
2024-01-26T20:19:59.795Z,44.70
2024-01-26T20:23:05.881Z,46.00
2024-01-26T20:26:13.204Z,46.00
2024-01-26T20:29:18.892Z,46.50
2024-01-26T20:32:27.354Z,43.90
2024-01-26T20:35:33.166Z,44.60
2024-01-26T20:38:39.102Z,46.60
2024-01-26T20:41:46.753Z,33.10
2024-01-26T20:44:52.576Z,44.70
2024-01-26T20:47:59.118Z,46.20
2024-01-26T20:51:05.034Z,53.10
2024-01-26T20:54:11.239Z,49.80
2024-01-26T20:57:18.243Z,50.40
2024-01-26T21:00:26.326Z,47.60
2024-01-26T21:03:32.466Z,49.40
2024-01-26T21:06:43.019Z,49.20
2024-01-26T21:09:48.800Z,47.30
2024-01-26T21:12:55.406Z,42.30
2024-01-26T21:16:01.088Z,20.30
2024-01-26T21:19:06.912Z,12.20
2024-01-26T21:22:12.698Z,11.80
2024-01-26T21:25:18.801Z,8.30
2024-01-26T21:28:25.461Z,12.30
2024-01-26T21:31:35.477Z,14.20
2024-01-26T21:34:41.357Z,9.00
2024-01-26T21:37:48.605Z,9.10
2024-01-26T21:40:54.558Z,7.90
2024-01-26T21:44:02.187Z,8.00
2024-01-26T21:47:08.747Z,5.60
2024-01-26T21:50:15.665Z,4.50
2024-01-26T21:53:21.582Z,4.00
2024-01-26T21:56:27.720Z,4.40
2024-01-26T21:59:33.670Z,5.10
2024-01-26T22:02:39.427Z,4.50
2024-01-26T22:05:45.474Z,4.20
2024-01-26T22:08:51.372Z,4.90
2024-01-26T22:11:57.253Z,4.80
2024-01-26T22:15:04.589Z,4.60
2024-01-26T22:18:10.793Z,5.10
2024-01-26T22:24:20.640Z,5.10
2024-01-26T22:27:26.586Z,5.10
2024-01-26T22:30:32.841Z,5.10
2024-01-26T22:36:42.966Z,5.00
2024-01-26T22:39:49.296Z,4.80
2024-01-26T22:42:54.943Z,4.80
2024-01-26T22:46:01.390Z,4.80
2024-01-26T22:49:07.371Z,5.90
2024-01-26T22:55:19.555Z,4.40
2024-01-26T22:58:25.812Z,4.50
2024-01-26T23:01:31.987Z,4.40
2024-01-26T23:07:41.635Z,4.00
2024-01-26T23:10:47.275Z,4.60
2024-01-26T23:13:53.385Z,3.50
2024-01-26T23:16:58.993Z,4.20
2024-01-26T23:20:06.284Z,3.90
2024-01-26T23:23:11.939Z,4.30
2024-01-26T23:26:17.680Z,4.20
2024-01-26T23:29:24.639Z,3.60
2024-01-26T23:32:30.829Z,4.10
2024-01-26T23:35:37.015Z,3.80
2024-01-26T23:38:43.069Z,3.80
2024-01-26T23:41:50.234Z,3.60
2024-01-26T23:44:57.313Z,3.50
2024-01-26T23:48:04.264Z,3.50
2024-01-26T23:51:10.209Z,4.50
2024-01-26T23:54:16.830Z,3.60
2024-01-26T23:57:22.566Z,4.00
